Terminal Aerodrome Forecast
Issued by NWS

Home | Current Version | Previous Version | Text Only | Print | Product List | Glossary On
Versions: 1 2 3 4 5 6 7 8 9 10 11 12
000
FTUS43 KGRB 172320
TAFAUW
TAF
KAUW 172320Z 1800/1824 19006KT P6SM SKC
     FM181600 20014G22KT P6SM SKC
     FM182300 23011KT P6SM SCT050=

USA.gov is the U.S. government's official web portal to all federal, state and local government web resources and services.